Willian Moreira

Recruteur en chef - Palmeiras
4 Avr 2027
Dimanche
Processus

Personnalité

Adaptabilité (14) Ambition (5) Controverse (17) Loyauté (4) Pression (7) Professionnalisme (4) Sportivité (17) Tempérament (4)

Profil

Style d'entraînement Démocratique
Diplôme Continental A
Détermination 8
Gestion des joueurs 7
Motivation 9
Discipline 15
Satisfaction professionnelle
95%
Fatigue
0%
Rôle Recruteur en chef
Salaire 55.9K p/s
Contrat 14.03.2030

Performance

Comportement Bon
Efficacité de l'entraînement
48%
Développement des joueurs
35%
Prévention des blessures
55%
Mise en place tactique
45%

Événements récents

A évalué un joueur maintenant
A participé à une réunion de recrutement maintenant
A évalué un joueur maintenant
A évalué un joueur maintenant
A évalué un joueur 7j
A évalué un joueur 7j
A évalué un joueur 7j
A évalué un joueur 7j

Suivi en cours

175
Joueur Club Statut Capacité Confiance Observé Dernière observation Dernier vote
Gérson Cruzeiro Actif 144 / 138 40% 5 03.04.2027 -
Esequiel Barco Spartak Moscow Actif 138 / 137 40% 3 03.04.2027 -
Antonino Gallo Lecce Actif 135 / 139 40% 1 03.04.2027 -
Alexis Vega Toluca Actif 148 / 150 40% 36 01.04.2027 -
Gonzalo Plata Dinamo Moscow Actif 134 / 139 40% 19 01.04.2027 -
Nikola Krstović Atalanta Actif 145 / 142 40% 15 31.03.2027 -
Michy Fellaini KV Oostende Actif 140 / 131 40% 28 31.03.2027 -
Fotis Ioannidis Sporting CP Actif 139 / 130 40% 14 31.03.2027 -
Mahmoud Al Bloushi Al Shabab Actif 149 / 142 40% 29 30.03.2027 -
Luka Jović AEK Actif 139 / 139 40% 24 30.03.2027 -
Kaio Jorge Cruzeiro Actif 142 / 148 40% 23 29.03.2027 -
Akor Adams Venezia Actif 143 / 138 40% 21 28.03.2027 -
Rocco Vata Watford Actif 125 / 118 40% 2 24.03.2027 -
Leo Castledine Middlesbrough Actif 126 / 132 40% 2 24.03.2027 -
Kauã Elias Shakhtar Actif 129 / 138 40% 7 23.03.2027 -
Cesar Corona Veracruz Actif 136 / 136 40% 18 21.03.2027 -
Jeff Ekhator Juventus Actif 128 / 134 40% 2 20.03.2027 -
Richard Ledezma Guadalajara Actif 140 / 139 40% 2 18.03.2027 -
Sidny Lopes Cabral Trabzonspor Actif 136 / 126 40% 2 18.03.2027 -
Eliezer Mayenda Stade Rennais Actif 131 / 139 40% 4 16.03.2027 -
Uchenna Ogundu FC Augsburg Actif 120 / 128 40% 1 16.03.2027 -
Julián Quiñones Al-Qadisiyah Actif 145 / 141 40% 13 15.03.2027 -
Jesús Angulo Tigres Actif 137 / 138 40% 2 15.03.2027 -
Marc Guiu Chelsea Actif 125 / 120 40% 1 15.03.2027 -
Kirill Glebov CSKA Moscow Actif 126 / 129 40% 1 15.03.2027 -
Jens Odgaard Bologna Actif 138 / 134 40% 2 10.03.2027 -
George Ilenikhena Al-Ittihad Actif 121 / 135 40% 1 08.03.2027 -
Luca Orellano Monterrey Actif 138 / 139 40% 2 06.03.2027 -
Sebastián Córdova Pumas UNAM Actif 137 / 130 40% 3 06.03.2027 -
Adnan Courtois KV Oostende Actif 118 / 131 40% 2 05.03.2027 -
Ricardo Mathias Al-Ahli Actif 120 / 129 40% 1 04.03.2027 -
Artem Dovbyk AS Roma Actif 140 / 151 40% 3 25.02.2027 -
Erik Lira Cruz Azul Actif 135 / 135 40% 3 25.02.2027 -
Pedrinho Shakhtar Actif 141 / 125 40% 2 23.02.2027 -
Leonardo Lelo Braga Actif 136 / 124 40% 1 23.02.2027 -
Marcel Ruiz Toluca Actif 143 / 135 40% 3 18.02.2027 -
Roberto Alvarado Guadalajara Actif 142 / 144 40% 4 18.02.2027 -
Pablo Maffeo Olympiacos Actif 141 / 135 40% 2 18.02.2027 -
Andrea Colpani Monza Actif 136 / 140 40% 1 17.02.2027 -
Sayed Abu Farchi Maccabi Tel Aviv Actif 113 / 118 40% 1 15.02.2027 -
Will Lankshear Middlesbrough Actif 127 / 118 40% 2 14.02.2027 -
Mateus Mané Manchester United Actif 131 / 147 40% 2 11.02.2027 -
Xavier Biscayzacú Defensor Sporting Actif 126 / 124 40% 2 10.02.2027 -
Caio Alexandre Bahia Actif 133 / 131 40% 3 06.02.2027 -
Mojmír Chytil Besiktas Actif 136 / 128 40% 11 05.02.2027 -
William Gomes Porto Actif 136 / 139 40% 4 03.02.2027 -
Jesús Ricardo Angulo Toluca Actif 134 / 134 40% 1 03.02.2027 -
Galeno Al-Ahli Actif 150 / 148 40% 3 31.01.2027 -
Facundo Torres Shakhtar Actif 139 / 129 40% 2 30.01.2027 -
Chris Rigg Sunderland Actif 129 / 146 40% 1 30.01.2027 -
Sindre Walle Egeli Tottenham Actif 124 / 128 40% 1 28.01.2027 -
Ansu Fati Monaco Actif 142 / 136 40% 5 26.01.2027 -
Breel Embolo Brighton Actif 143 / 133 40% 2 23.01.2027 -
Ernest Nuamah Olympique Lyonnais Actif 138 / 142 40% 2 20.01.2027 -
Folarin Balogun Monaco Actif 135 / 139 40% 1 17.01.2027 -
Youssef En-Nesyri Al-Ittihad Actif 147 / 132 40% 17 12.01.2027 -
Martinelli Fluminense Actif 140 / 146 40% 1 07.01.2027 -
Sébastien Durand Tours Actif 132 / 139 40% 1 06.01.2027 -
Félix Lemaréchal Club Brugge Actif 134 / 136 40% 1 01.01.2027 -
Marcos Antonio Sport Recife Actif 138 / 139 40% 1 01.01.2027 -
Rayan Fofana RC Lens Actif 119 / 129 40% 1 29.12.2026 -
Robert FC Copenhagen Actif 129 / 131 40% 1 19.12.2026 -
Francesco Pio Esposito Inter Actif 146 / 149 40% 1 15.12.2026 -
Marcos Victor Bahia Refusé 119 / 126 83% 1 14.12.2026 Refuser
Diego López Valencia Actif 135 / 146 40% 3 08.12.2026 -
Gianluca Prestianni Benfica Actif 138 / 137 40% 2 07.12.2026 -
Luis Sinisterra Cruzeiro Actif 139 / 136 40% 3 05.12.2026 -
Tristan Degreef Anderlecht Actif 123 / 120 40% 1 03.12.2026 -
Agustín Ruberto River Plate Actif 116 / 130 40% 1 30.11.2026 -
Carlos Espí Real Madrid Actif 113 / 127 40% 1 28.11.2026 -
Alexey Batrakov Galatasaray Actif 141 / 149 40% 6 26.11.2026 -
Kostantis Tzolakis Hull City Actif 134 / 147 40% 2 26.11.2026 -
Maduka Okoye Udinese Actif 132 / 136 40% 2 26.11.2026 -
Carl Rushworth Coventry City Refusé 139 / 138 40% 1 26.11.2026 -
Pedro Flamengo Refusé 147 / 143 40% 8 24.11.2026 -
Figueiredo Alverca Actif 132 / 124 40% 1 24.11.2026 -
Tamble Monteiro Rio Ave Actif 119 / 114 40% 1 24.11.2026 -
José Bica Leixões Actif 105 / 96 40% 1 23.11.2026 -
Urko Izeta Cádiz Actif 136 / 121 40% 1 23.11.2026 -
Giorgos Koutsias Famalicao Actif 117 / 127 40% 1 23.11.2026 -
Iván Fresneda Sporting CP Actif 136 / 147 40% 1 21.11.2026 -
Matteo Cancellieri Lazio Actif 136 / 148 40% 5 19.11.2026 -
Kasper Dolberg Ajax Actif 139 / 144 40% 5 17.11.2026 -
Alan Varela Porto Actif 144 / 145 40% 1 17.11.2026 -
Dom Ballard Leyton Orient Actif 114 / 123 40% 1 17.11.2026 -
Musa Barrow Al-Khaleej Actif 137 / 142 40% 1 14.11.2026 -
Viktor Johansson Stoke City Actif 135 / 137 40% 2 12.11.2026 -
Luiz Júnior Villarreal Actif 144 / 150 40% 1 12.11.2026 -
Axel Alderweireld KV Oostende Actif 140 / 150 40% 2 10.11.2026 -
Elia Caprile Cagliari Actif 143 / 149 40% 1 10.11.2026 -
Leon Grgić Red Bull Salzburg Actif 120 / 132 40% 1 09.11.2026 -
Othmane Maamma Watford Actif 125 / 120 40% 1 09.11.2026 -
Veljko Birmančević Ferencvaros Actif 139 / 129 40% 1 09.11.2026 -
Boulaye Dia Lazio Actif 145 / 131 40% 5 06.11.2026 -
Raúl Alcaina Penafiel Actif 97 / 96 40% 1 06.11.2026 -
Zé Leite Oliveirense Actif 120 / 112 40% 1 06.11.2026 -
Jason Januzaj Mouscron Actif 150 / 149 40% 11 05.11.2026 -
Alexander Bah Benfica Actif 135 / 142 40% 1 05.11.2026 -
Ciprian Coman Pandurii Actif 122 / 115 40% 1 03.11.2026 -
Hugo Duro Valencia Actif 144 / 143 40% 2 01.11.2026 -
Josep Martínez Inter Actif 136 / 133 40% 2 26.10.2026 -
Tomoki Hayakawa Feyenoord Actif 133 / 129 40% 2 26.10.2026 -
Sergey Pinyaev Lokomotiv Moscow Actif 121 / 128 40% 1 26.10.2026 -
Francisco Moura Porto Actif 138 / 133 40% 1 26.10.2026 -
Jakub Stolarczyk Leicester City Actif 136 / 132 40% 1 26.10.2026 -
Sergio Reguilón Inter Miami CF Actif 139 / 138 40% 2 22.10.2026 -
Justin Bijlow Genoa Actif 151 / 139 40% 1 20.10.2026 -
Berke Özer LOSC Lille Actif 137 / 143 40% 1 20.10.2026 -
Matěj Kovář PSV Actif 138 / 130 40% 1 18.10.2026 -
Edoardo Motta Lazio Actif 124 / 131 40% 1 18.10.2026 -
Ricardo Pepi PSV Actif 146 / 147 40% 2 10.10.2026 -
Danilo Botafogo Actif 134 / 130 40% 2 09.10.2026 -
Evander FC Cincinnati Actif 136 / 135 40% 1 09.10.2026 -
Carlos Rodríguez Cruz Azul Actif 137 / 139 40% 1 09.10.2026 -
Oumar Camara Vitoria Guimaraes Actif 114 / 129 40% 1 05.10.2026 -
Rasmus Højlund Napoli Actif 154 / 141 40% 3 04.10.2026 -
Agustín Palavecino Cruz Azul Actif 141 / 138 40% 1 04.10.2026 -
Daniel Bragança Sporting CP Actif 140 / 137 40% 2 03.10.2026 -
Samuel Lino Flamengo Actif 140 / 135 40% 2 02.10.2026 -
Lucas Paquetá Flamengo Actif 135 / 135 40% 1 02.10.2026 -
Kerem Aktürkoğlu Fenerbahce Actif 141 / 130 40% 1 30.09.2026 -
Dodi Lukébakio Benfica Actif 143 / 145 40% 3 29.09.2026 -
Liam Delap Nottingham Forest Actif 139 / 147 40% 4 29.09.2026 -
Steven Bergwijn Al-Ittihad Actif 145 / 146 40% 4 28.09.2026 -
Richarlison Tottenham Actif 145 / 138 40% 1 28.09.2026 -
Nikola Vlašić Torino Actif 139 / 142 40% 2 27.09.2026 -
Santiago Castro AS Roma Actif 141 / 143 40% 2 27.09.2026 -
Barış Alper Yılmaz Galatasaray Actif 143 / 154 40% 3 25.09.2026 -
Largie Ramazani Leeds United Actif 132 / 139 40% 1 24.09.2026 -
Donyell Malen AS Roma Actif 145 / 150 40% 1 24.09.2026 -
Jorge Meireles AVS Actif 114 / 110 40% 1 24.09.2026 -
Henrique Araújo Casa Pia Actif 117 / 128 40% 1 24.09.2026 -
Gustavo Silva Vitoria Guimaraes Actif 126 / 126 40% 1 24.09.2026 -
Tasos Douvikas Como Actif 142 / 137 40% 2 22.09.2026 -
Moise Kean Fiorentina Actif 146 / 144 40% 2 22.09.2026 -
Amine Gouiri Olympique de Marseille Actif 141 / 136 40% 3 21.09.2026 -
Luis Suárez Sporting CP Actif 152 / 161 40% 1 21.09.2026 -
Nicolò Zaniolo Udinese Actif 146 / 143 40% 3 19.09.2026 -
Santiago Giménez AC Milan Actif 149 / 136 40% 2 18.09.2026 -
Joshua Zirkzee Manchester United Actif 142 / 147 40% 1 18.09.2026 -
Mihailo Ivanović Millwall Actif 122 / 137 40% 1 16.09.2026 -
Víctor Gómez Braga Actif 136 / 134 40% 1 15.09.2026 -
Andreas Schjelderup Benfica Actif 132 / 132 40% 2 14.09.2026 -
Renan Lodi Atlético Mineiro Actif 133 / 139 40% 2 14.09.2026 -
Maximiliano Araújo Sporting CP Actif 152 / 158 40% 1 12.09.2026 -
Marvin Keller Young Boys Actif 133 / 132 40% 1 12.09.2026 -
Dominik Greif Olympique Lyonnais Actif 135 / 137 40% 1 12.09.2026 -
Jørgen Strand Larsen Crystal Palace Actif 146 / 134 40% 1 10.09.2026 -
Exequiel Palacios Ipswich Town Actif 156 / 150 40% 1 09.09.2026 -
Victor Froholdt Porto Actif 150 / 166 40% 1 08.09.2026 -
Guilherme Arana Fluminense Actif 139 / 131 40% 1 08.09.2026 -
Borja Sainz Porto Actif 142 / 148 40% 1 06.09.2026 -
Lovro Zvonarek Estrela da Amadora Actif 120 / 136 40% 1 06.09.2026 -
Randal Kolo Muani Juventus Actif 143 / 146 40% 2 03.09.2026 -
Luca Koleosho Paris FC Actif 131 / 121 40% 1 02.09.2026 -
Dominic Calvert-Lewin Leeds United Actif 144 / 137 40% 1 27.08.2026 -
Heorhii Sudakov Benfica Actif 147 / 142 40% 2 26.08.2026 -
Guus Til PSV Actif 134 / 142 40% 2 25.08.2026 -
Maher Carrizo Ajax Actif 114 / 122 40% 1 24.08.2026 -
Ayoub Oufkir AZ Actif 126 / 134 40% 1 22.08.2026 -
Stefanos Tzimas Brighton Actif 132 / 142 40% 2 21.08.2026 -
Iñaki Peña Panathinaikos Actif 143 / 130 40% 1 19.08.2026 -
Matthieu Epolo Standard Liege Actif 123 / 114 40% 1 19.08.2026 -
Matías Fernández-Pardo LOSC Lille Actif 138 / 147 40% 1 12.08.2026 -
Arijanet Murić Sassuolo Actif 131 / 142 40% 1 10.08.2026 -
Robin Roefs Sunderland Actif 136 / 144 40% 1 10.08.2026 -
Jones El-Abdellaoui Celta Actif 125 / 140 40% 1 08.08.2026 -
Chupete Málaga Actif 118 / 133 40% 1 07.08.2026 -
Cucho Hernández Betis Actif 142 / 139 40% 1 04.08.2026 -
Gonçalo Guedes Real Sociedad Actif 141 / 145 40% 1 04.08.2026 -
Gorka Guruzeta Athletic Bilbao Actif 145 / 147 40% 1 04.08.2026 -
Kevin Schade Brentford Actif 144 / 155 40% 1 04.08.2026 -
Rodrigo Zalazar Sporting CP Actif 146 / 156 40% 1 04.08.2026 -
Mateo Retegui Al-Qadisiyah Actif 156 / 145 40% 1 02.08.2026 -
Igor Jesus Nottingham Forest Actif 145 / 140 40% 1 01.08.2026 -